Terminal Aerodrome Forecast
Issued by NWS Blacksburg, VA

Home | Current Version | Previous Version | Text Only | Print | Product List | Glossary On
Versions: 1 2 3 4 5 6 7 8 9 10 11 12 13 14 15 16 17 18 19 20 21 22 23 24 25 26 27 28 29 30 31 32 33 34
000
FTUS41 KRNK 112339
TAFBLF
TAF
KBLF 112339Z 1200/1224 VRB04KT P6SM BKN050
     FM120300 VRB03KT P6SM SCT045
     FM121400 22007KT P6SM BKN040
     FM122100 21006KT P6SM VCTS BKN045CB=

USA.gov is the U.S. government's official web portal to all federal, state and local government web resources and services.